Time;durP1;ratioP1;P1;durP2;ratioP2;P2;SDS_P1;SDS_P2;PMS_P1;PMS_P2;Temp;Humidity;BMP_temperature;BMP_pressure;BME280_temperature;BME280_humidity;BME280_pressure;Samples;Min_cycle;Max_cycle;Signal;HPM_P1;HPM_P2
2022/10/01 00:00:59;;;;;;;1.88;1.45;;;18.10;99.90;;;;;;5094398;28;20020;-60
2022/10/01 00:03:26;;;;;;;2.83;1.67;;;18.20;99.90;;;;;;5094025;28;20024;-59
2022/10/01 00:06:00;;;;;;;2.25;1.27;;;18.20;99.90;;;;;;5094169;28;20428;-61
2022/10/01 00:08:26;;;;;;;4.25;2.10;;;18.30;99.90;;;;;;5093653;28;20062;-59
2022/10/01 00:10:52;;;;;;;4.22;2.30;;;18.20;99.90;;;;;;5093739;28;20119;-59
2022/10/01 00:13:19;;;;;;;2.20;2.00;;;18.10;99.90;;;;;;5093830;28;20107;-60
2022/10/01 00:15:45;;;;;;;2.47;2.08;;;18.00;99.90;;;;;;5093949;28;20020;-61
2022/10/01 00:18:11;;;;;;;4.10;1.45;;;18.00;99.90;;;;;;5093708;28;20107;-62
2022/10/01 00:20:42;;;;;;;2.97;2.05;;;18.00;99.90;;;;;;5093690;28;20128;-60
2022/10/01 00:23:08;;;;;;;4.38;2.03;;;18.00;99.90;;;;;;5094012;28;20054;-60
2022/10/01 00:25:34;;;;;;;4.57;1.73;;;18.00;99.90;;;;;;5093732;28;20031;-61
2022/10/01 00:28:00;;;;;;;4.28;1.45;;;18.00;99.90;;;;;;5094544;28;20024;-60
2022/10/01 00:30:26;;;;;;;3.22;1.75;;;18.00;99.90;;;;;;5093693;28;20050;-61
2022/10/01 00:32:55;;;;;;;1.85;1.33;;;18.20;99.90;;;;;;5093833;28;20471;-61
2022/10/01 00:35:21;;;;;;;4.03;2.00;;;18.20;99.90;;;;;;5093834;28;20028;-61
2022/10/01 00:37:49;;;;;;;2.45;1.63;;;18.20;99.90;;;;;;5093538;28;20106;-61
2022/10/01 00:40:16;;;;;;;1.92;1.60;;;18.10;99.90;;;;;;5093363;28;20378;-62
2022/10/01 00:42:42;;;;;;;3.17;2.00;;;18.10;99.90;;;;;;5093637;28;20486;-60
2022/10/01 00:45:11;;;;;;;2.95;1.45;;;18.10;99.90;;;;;;5093408;28;20524;-60
2022/10/01 00:47:56;;;;;;;1.92;1.20;;;18.00;99.90;;;;;;5093721;28;20028;-61
2022/10/01 00:50:29;;;;;;;3.78;1.83;;;18.10;99.90;;;;;;5093490;28;20474;-59
2022/10/01 00:52:59;;;;;;;1.67;1.40;;;18.10;99.90;;;;;;5093245;28;20386;-61
2022/10/01 00:55:31;;;;;;;4.30;1.92;;;18.10;99.90;;;;;;5093194;28;20482;-60
2022/10/01 00:57:57;;;;;;;3.15;1.13;;;18.10;99.90;;;;;;5093381;28;20403;-59
2022/10/01 01:00:24;;;;;;;2.13;1.38;;;18.10;99.90;;;;;;5093254;28;20027;-62
2022/10/01 01:02:50;;;;;;;1.50;1.10;;;18.10;99.90;;;;;;5093290;28;20028;-62
2022/10/01 01:05:15;;;;;;;2.95;1.52;;;18.10;99.90;;;;;;5093562;28;20017;-60
2022/10/01 01:07:45;;;;;;;2.13;0.90;;;18.20;99.90;;;;;;5093132;28;20467;-61
2022/10/01 01:10:15;;;;;;;1.10;0.98;;;18.20;99.90;;;;;;5092967;28;20524;-62
2022/10/01 01:13:00;;;;;;;1.48;0.90;;;18.20;99.90;;;;;;5093409;28;20035;-60
2022/10/01 01:15:35;;;;;;;1.90;1.25;;;18.20;99.90;;;;;;5093183;28;20502;-62
2022/10/01 01:18:22;;;;;;;1.40;0.80;;;18.30;99.90;;;;;;5093136;28;20470;-60
2022/10/01 01:21:10;;;;;;;2.05;1.10;;;18.30;99.90;;;;;;5093406;28;20016;-61
2022/10/01 01:23:59;;;;;;;2.25;1.10;;;18.30;99.90;;;;;;5092831;28;20031;-61
2022/10/01 01:26:44;;;;;;;2.00;1.10;;;18.30;99.90;;;;;;5092999;28;20032;-60
2022/10/01 01:29:20;;;;;;;1.52;1.05;;;18.20;99.90;;;;;;5093033;28;20012;-61
2022/10/01 01:31:46;;;;;;;1.77;0.77;;;18.30;99.90;;;;;;5092925;28;20664;-59
2022/10/01 01:34:20;;;;;;;0.93;0.75;;;18.30;99.90;;;;;;5096057;28;20016;-61
2022/10/01 01:36:53;;;;;;;1.38;0.80;;;18.30;99.90;;;;;;5097163;28;20028;-61
2022/10/01 01:39:23;;;;;;;0.88;0.80;;;18.30;99.90;;;;;;5096598;28;20463;-61
2022/10/01 01:41:54;;;;;;;1.25;1.08;;;18.30;99.90;;;;;;5096775;28;20039;-61
2022/10/01 01:44:24;;;;;;;1.08;0.82;;;18.20;99.90;;;;;;5096817;28;20020;-61
2022/10/01 01:46:55;;;;;;;1.42;0.90;;;18.20;99.90;;;;;;5096606;28;20020;-60
2022/10/01 01:49:22;;;;;;;2.88;0.85;;;18.10;99.90;;;;;;5096885;28;20028;-60
2022/10/01 01:51:59;;;;;;;4.43;1.60;;;18.10;99.90;;;;;;5096386;28;20024;-61
2022/10/01 01:54:28;;;;;;;1.20;1.10;;;18.00;99.90;;;;;;5096548;28;20024;-61
2022/10/01 01:56:55;;;;;;;3.17;1.50;;;17.90;99.90;;;;;;5096491;28;20020;-61
2022/10/01 01:59:21;;;;;;;3.58;1.40;;;18.00;99.90;;;;;;5096358;28;20016;-62
2022/10/01 02:01:48;;;;;;;1.48;1.38;;;18.00;99.90;;;;;;5096428;28;20063;-62
2022/10/01 02:04:13;;;;;;;1.48;1.33;;;18.00;99.90;;;;;;5096708;28;20032;-61
2022/10/01 02:06:54;;;;;;;2.67;1.10;;;18.00;99.90;;;;;;5095965;28;20024;-61
2022/10/01 02:09:27;;;;;;;2.38;1.30;;;17.90;99.90;;;;;;5096187;28;20085;-62
2022/10/01 02:12:06;;;;;;;1.50;1.15;;;17.90;99.90;;;;;;5096142;28;20085;-62
2022/10/01 02:15:21;;;;;;;4.43;1.60;;;17.90;99.90;;;;;;5096257;28;20019;-60
2022/10/01 02:18:10;;;;;;;1.90;1.10;;;17.90;99.90;;;;;;5063888;28;20490;-62
2022/10/01 02:20:38;;;;;;;2.00;1.27;;;17.90;99.90;;;;;;5095190;28;20032;-60
2022/10/01 02:23:14;;;;;;;2.45;1.30;;;17.90;99.90;;;;;;5096098;28;20020;-62
2022/10/01 02:25:47;;;;;;;1.67;1.30;;;17.90;99.90;;;;;;5096147;28;20105;-60
2022/10/01 02:28:17;;;;;;;1.75;1.00;;;18.00;99.90;;;;;;5096018;28;20463;-59
2022/10/01 02:30:43;;;;;;;1.23;1.10;;;18.00;99.90;;;;;;5095904;28;20069;-61
2022/10/01 02:33:13;;;;;;;1.10;1.00;;;18.00;99.90;;;;;;5095662;28;20032;-60
2022/10/01 02:35:42;;;;;;;1.90;1.00;;;18.00;99.90;;;;;;5096067;28;20027;-61
2022/10/01 02:38:10;;;;;;;3.58;1.40;;;18.10;99.90;;;;;;5095698;28;20035;-61
2022/10/01 02:40:39;;;;;;;1.02;0.90;;;18.00;99.90;;;;;;5095651;28;20020;-61
2022/10/01 02:43:16;;;;;;;1.13;0.90;;;18.00;99.90;;;;;;5095776;28;20031;-60
2022/10/01 02:45:46;;;;;;;1.45;1.00;;;18.20;99.90;;;;;;5094265;28;20085;-60
2022/10/01 02:48:16;;;;;;;5.60;1.85;;;18.20;99.90;;;;;;5095532;28;20381;-62
2022/10/01 02:50:50;;;;;;;3.92;1.38;;;18.20;99.90;;;;;;5095615;28;20035;-60
2022/10/01 02:53:30;;;;;;;2.20;1.25;;;18.20;99.90;;;;;;5095362;28;20028;-60
2022/10/01 02:55:58;;;;;;;2.45;1.20;;;18.20;99.90;;;;;;5095440;28;20023;-61
2022/10/01 02:58:24;;;;;;;2.13;1.10;;;18.20;99.90;;;;;;5095480;28;20108;-61
2022/10/01 03:00:50;;;;;;;2.38;1.02;;;18.20;99.90;;;;;;5095554;28;20047;-60
2022/10/01 03:03:15;;;;;;;2.38;1.02;;;18.10;99.90;;;;;;5095370;28;20493;-62
2022/10/01 03:05:41;;;;;;;1.42;1.00;;;18.00;99.90;;;;;;5094878;28;20020;-61
2022/10/01 03:08:06;;;;;;;1.92;1.00;;;18.00;99.90;;;;;;5095058;28;20027;-60
2022/10/01 03:10:33;;;;;;;1.90;0.98;;;18.00;99.90;;;;;;5094869;28;20048;-62
2022/10/01 03:13:00;;;;;;;0.70;0.70;;;18.00;99.90;;;;;;5095160;28;20061;-62
2022/10/01 03:15:26;;;;;;;2.42;1.00;;;18.00;99.90;;;;;;5095291;28;20062;-61
2022/10/01 03:17:52;;;;;;;1.67;0.88;;;18.20;99.90;;;;;;5094898;28;20409;-59
2022/10/01 03:20:18;;;;;;;1.00;0.70;;;18.30;99.90;;;;;;5094618;28;20024;-60
2022/10/01 03:22:45;;;;;;;1.00;0.50;;;18.40;99.90;;;;;;5094833;28;20141;-61
2022/10/01 03:25:11;;;;;;;0.70;0.60;;;18.50;99.90;;;;;;5094775;28;20114;-62
2022/10/01 03:27:37;;;;;;;1.27;0.70;;;18.60;99.90;;;;;;5094646;28;20123;-62
2022/10/01 03:30:04;;;;;;;1.05;0.70;;;18.60;99.90;;;;;;5094795;28;20058;-61
2022/10/01 03:32:30;;;;;;;0.52;0.50;;;18.60;99.90;;;;;;5094502;28;20548;-61
2022/10/01 03:34:56;;;;;;;1.00;0.80;;;18.60;99.90;;;;;;5094482;28;20213;-60
2022/10/01 03:37:21;;;;;;;0.80;0.60;;;18.70;99.90;;;;;;5094463;28;20126;-60
2022/10/01 03:39:47;;;;;;;0.50;0.50;;;19.00;99.90;;;;;;5094800;28;20032;-62
2022/10/01 03:42:13;;;;;;;0.82;0.60;;;19.20;99.90;;;;;;5094413;28;20095;-60
2022/10/01 03:44:38;;;;;;;3.03;0.85;;;19.40;99.90;;;;;;5094329;28;20024;-62
2022/10/01 03:47:04;;;;;;;0.90;0.80;;;19.60;99.20;;;;;;5094589;28;20489;-62
2022/10/01 03:49:30;;;;;;;2.17;0.68;;;19.70;99.30;;;;;;5094396;28;20028;-61
2022/10/01 03:51:55;;;;;;;1.05;0.80;;;19.70;99.50;;;;;;5094116;28;20498;-61
2022/10/01 03:54:21;;;;;;;1.17;0.70;;;19.90;97.70;;;;;;5094370;28;20027;-63
2022/10/01 03:56:47;;;;;;;1.60;1.30;;;19.90;99.00;;;;;;5094017;28;20024;-61
2022/10/01 03:59:13;;;;;;;2.40;1.95;;;19.90;99.30;;;;;;5094064;28;20533;-61
2022/10/01 04:01:39;;;;;;;2.38;1.33;;;19.70;99.90;;;;;;5094187;28;20107;-62
2022/10/01 04:04:05;;;;;;;3.60;1.20;;;19.50;99.90;;;;;;5093977;28;20028;-61
2022/10/01 04:06:31;;;;;;;2.17;1.10;;;19.30;99.90;;;;;;5094090;28;20466;-61
2022/10/01 04:08:57;;;;;;;3.97;2.47;;;19.20;99.90;;;;;;5094000;28;20100;-60
2022/10/01 04:11:23;;;;;;;2.50;1.95;;;19.00;99.90;;;;;;5093899;28;20056;-62
2022/10/01 04:13:49;;;;;;;2.63;1.33;;;19.00;99.90;;;;;;5093802;28;20089;-61
2022/10/01 04:16:15;;;;;;;2.58;1.75;;;19.00;99.90;;;;;;5093841;28;20031;-62
2022/10/01 04:18:41;;;;;;;3.92;2.33;;;19.10;99.90;;;;;;5093915;28;20024;-62
2022/10/01 04:21:06;;;;;;;2.22;1.70;;;19.10;99.90;;;;;;5093765;28;20024;-62
2022/10/01 04:23:32;;;;;;;4.13;3.03;;;19.10;99.90;;;;;;5093670;28;20078;-61
2022/10/01 04:26:02;;;;;;;3.40;3.10;;;19.10;99.90;;;;;;5093751;28;20031;-60
2022/10/01 04:28:29;;;;;;;3.85;3.50;;;19.00;99.90;;;;;;5093978;28;20031;-59
2022/10/01 04:33:39;;;;;;;2.30;2.10;;;18.90;99.90;;;;;;5093326;28;20496;-61
2022/10/01 04:36:04;;;;;;;2.60;2.40;;;18.90;99.90;;;;;;5093479;28;20024;-60
2022/10/01 04:38:30;;;;;;;2.90;2.25;;;18.90;99.90;;;;;;5093508;28;20450;-60
2022/10/01 04:40:56;;;;;;;5.22;4.10;;;18.90;99.90;;;;;;5093448;28;20498;-61
2022/10/01 04:43:21;;;;;;;12.73;8.25;;;18.90;99.90;;;;;;5093413;28;20024;-60
2022/10/01 04:45:47;;;;;;;11.50;9.00;;;18.80;99.90;;;;;;5093158;28;20028;-61
2022/10/01 04:48:13;;;;;;;15.43;11.43;;;18.80;99.90;;;;;;5093666;28;20466;-61
2022/10/01 04:50:38;;;;;;;18.08;14.80;;;18.70;99.90;;;;;;5093276;28;20032;-60
2022/10/01 04:53:04;;;;;;;3.70;2.35;;;18.60;99.90;;;;;;5093230;28;20028;-62
2022/10/01 04:55:30;;;;;;;3.38;1.20;;;18.50;99.90;;;;;;5093462;28;20020;-61
2022/10/01 04:57:55;;;;;;;2.28;1.00;;;18.70;99.90;;;;;;5093323;28;20020;-60
2022/10/01 05:00:25;;;;;;;1.98;0.80;;;18.90;99.90;;;;;;5093058;28;20051;-61
2022/10/01 05:02:52;;;;;;;1.02;0.63;;;19.00;99.90;;;;;;5093228;28;20488;-62
2022/10/01 05:05:20;;;;;;;0.88;0.70;;;19.20;99.90;;;;;;5093253;28;20016;-62
2022/10/01 05:07:46;;;;;;;1.42;1.15;;;19.30;99.90;;;;;;5094302;28;20050;-60
2022/10/01 05:10:17;;;;;;;2.35;1.10;;;19.40;99.90;;;;;;5097515;28;20052;-60
2022/10/01 05:12:45;;;;;;;1.45;1.10;;;19.30;99.90;;;;;;5097328;28;20032;-61
2022/10/01 05:15:11;;;;;;;5.43;3.60;;;19.20;99.90;;;;;;5097033;28;20020;-60
2022/10/01 05:17:36;;;;;;;3.25;3.05;;;19.20;99.90;;;;;;5097778;28;20026;-59
2022/10/01 05:20:04;;;;;;;3.78;3.42;;;19.10;99.90;;;;;;5097271;28;20020;-62
2022/10/01 05:22:30;;;;;;;3.65;3.35;;;19.00;99.90;;;;;;5096974;28;20038;-59
2022/10/01 05:24:58;;;;;;;3.53;3.22;;;18.90;99.90;;;;;;5097197;28;20066;-62
2022/10/01 05:27:29;;;;;;;3.17;2.80;;;18.90;99.90;;;;;;5097118;28;20020;-62
2022/10/01 05:29:55;;;;;;;2.78;2.58;;;18.90;99.90;;;;;;5096675;28;20028;-60
2022/10/01 05:32:21;;;;;;;3.85;2.45;;;19.00;99.90;;;;;;5097157;28;20035;-60
2022/10/01 05:34:47;;;;;;;2.20;2.00;;;19.00;99.90;;;;;;5096881;28;20516;-60
2022/10/01 05:37:13;;;;;;;2.03;1.73;;;19.00;99.90;;;;;;5097050;28;20024;-61
2022/10/01 05:39:39;;;;;;;4.03;2.10;;;19.00;99.90;;;;;;5097120;28;20023;-62
2022/10/01 05:42:05;;;;;;;2.10;1.90;;;19.00;99.90;;;;;;5096668;28;20024;-61
2022/10/01 05:44:36;;;;;;;2.85;1.80;;;18.90;99.90;;;;;;5096829;28;20020;-61
2022/10/01 05:47:04;;;;;;;2.40;1.77;;;18.80;99.90;;;;;;5097050;28;20025;-60
2022/10/01 05:49:29;;;;;;;3.08;1.52;;;18.80;99.90;;;;;;5096774;28;20032;-61
2022/10/01 05:51:55;;;;;;;2.47;1.80;;;18.90;99.90;;;;;;5096367;28;20021;-61
2022/10/01 05:54:21;;;;;;;1.52;1.40;;;18.90;99.90;;;;;;5096700;28;20031;-61
2022/10/01 05:56:48;;;;;;;3.90;2.28;;;18.90;99.90;;;;;;5096592;28;20102;-60
2022/10/01 05:59:14;;;;;;;2.05;1.60;;;18.80;99.90;;;;;;5096304;28;20028;-61
2022/10/01 06:01:39;;;;;;;2.33;1.80;;;18.90;99.90;;;;;;5096537;28;20020;-61
2022/10/01 06:04:05;;;;;;;1.67;1.58;;;18.90;99.90;;;;;;5096358;28;20016;-60
2022/10/01 06:06:31;;;;;;;1.77;1.40;;;19.10;99.90;;;;;;5096347;28;20099;-62
2022/10/01 06:08:58;;;;;;;2.65;2.30;;;19.10;99.90;;;;;;5096043;28;20044;-61
2022/10/01 06:11:25;;;;;;;3.15;2.13;;;19.20;99.90;;;;;;5096259;28;20023;-61
2022/10/01 06:13:51;;;;;;;3.00;2.70;;;19.10;99.90;;;;;;5095995;28;20028;-60
2022/10/01 06:16:17;;;;;;;2.90;2.70;;;19.20;99.90;;;;;;5096104;28;20024;-61
2022/10/01 06:18:43;;;;;;;4.93;4.40;;;19.20;99.90;;;;;;5095855;28;20363;-61
2022/10/01 06:21:08;;;;;;;3.90;3.55;;;19.20;99.90;;;;;;5096060;28;20051;-62
2022/10/01 06:23:35;;;;;;;4.22;3.83;;;19.20;99.90;;;;;;5095996;28;20024;-61
2022/10/01 06:26:04;;;;;;;4.93;4.07;;;19.30;99.90;;;;;;5096022;28;20020;-59
2022/10/01 06:28:30;;;;;;;5.13;3.40;;;19.30;99.90;;;;;;5095804;28;20553;-60
2022/10/01 06:30:56;;;;;;;4.20;3.80;;;19.30;99.90;;;;;;5095730;28;20034;-60
2022/10/01 06:33:22;;;;;;;4.82;3.70;;;19.30;99.90;;;;;;5096024;28;20024;-62
2022/10/01 06:35:50;;;;;;;3.83;3.40;;;19.30;99.90;;;;;;5096073;28;20008;-61
2022/10/01 06:38:21;;;;;;;3.50;3.20;;;19.40;99.90;;;;;;5095722;28;20024;-61
2022/10/01 06:40:51;;;;;;;4.30;3.00;;;19.50;99.90;;;;;;5095646;28;20032;-62
2022/10/01 06:43:17;;;;;;;3.30;3.00;;;19.60;99.90;;;;;;5095527;28;20028;-61
2022/10/01 06:45:42;;;;;;;3.63;3.33;;;19.60;99.90;;;;;;5095531;28;20031;-59
2022/10/01 06:48:12;;;;;;;4.05;3.28;;;19.70;99.90;;;;;;5095822;28;20024;-60
2022/10/01 06:50:39;;;;;;;5.25;3.60;;;19.70;99.90;;;;;;5095465;28;20028;-60
2022/10/01 06:53:05;;;;;;;4.35;3.10;;;19.80;99.90;;;;;;5095312;28;20463;-60
2022/10/01 06:55:33;;;;;;;2.90;2.60;;;19.80;99.90;;;;;;5095653;28;20020;-62
2022/10/01 06:58:01;;;;;;;3.63;2.22;;;19.80;99.90;;;;;;5095476;28;20030;-60
2022/10/01 07:00:30;;;;;;;3.85;2.30;;;19.90;99.90;;;;;;5095176;28;20055;-61
2022/10/01 07:02:55;;;;;;;1.98;1.60;;;19.90;99.90;;;;;;5095552;28;20055;-61
2022/10/01 07:05:25;;;;;;;1.80;1.40;;;20.00;99.90;;;;;;5095277;28;20462;-60
2022/10/01 07:07:52;;;;;;;2.70;1.30;;;20.10;99.90;;;;;;5095091;28;20016;-60
2022/10/01 07:10:19;;;;;;;1.83;1.30;;;20.20;99.90;;;;;;5094849;28;20130;-62
2022/10/01 07:12:49;;;;;;;3.88;2.38;;;20.40;99.90;;;;;;5094774;28;20478;-60
2022/10/01 07:15:17;;;;;;;4.38;3.33;;;20.90;99.70;;;;;;5095036;28;20035;-62
2022/10/01 07:17:45;;;;;;;4.30;2.53;;;21.60;97.00;;;;;;5095073;28;20043;-60
2022/10/01 07:20:11;;;;;;;2.00;1.80;;;21.70;94.50;;;;;;5095201;28;20070;-60
2022/10/01 07:22:37;;;;;;;2.30;1.60;;;21.50;95.20;;;;;;5094796;28;20473;-60
2022/10/01 07:25:03;;;;;;;2.55;1.90;;;21.20;96.60;;;;;;5094785;28;20020;-60
2022/10/01 07:27:29;;;;;;;3.67;2.72;;;21.20;97.80;;;;;;5094824;28;20054;-60
2022/10/01 07:29:57;;;;;;;5.28;2.95;;;21.20;99.10;;;;;;5094363;28;20051;-60
2022/10/01 07:32:24;;;;;;;2.80;2.50;;;21.30;99.50;;;;;;5094237;28;20123;-61
2022/10/01 07:34:49;;;;;;;3.92;3.13;;;21.50;99.80;;;;;;5094716;28;20020;-60
2022/10/01 07:37:16;;;;;;;3.65;3.17;;;22.70;96.10;;;;;;5094787;28;20509;-61
2022/10/01 07:39:41;;;;;;;5.57;4.07;;;23.60;95.90;;;;;;5094664;28;20020;-60
2022/10/01 07:42:07;;;;;;;5.53;4.20;;;24.10;93.80;;;;;;5094759;28;20032;-61
2022/10/01 07:44:33;;;;;;;6.03;4.13;;;25.80;90.20;;;;;;5094281;28;20069;-61
2022/10/01 07:46:59;;;;;;;5.00;3.80;;;27.40;78.30;;;;;;5094422;28;20039;-60
2022/10/01 07:49:25;;;;;;;4.43;3.25;;;28.70;71.40;;;;;;5094375;28;20048;-60
2022/10/01 07:51:52;;;;;;;4.63;3.35;;;30.30;65.20;;;;;;5094440;28;20027;-62
2022/10/01 07:54:19;;;;;;;3.42;3.05;;;30.30;61.00;;;;;;5094384;28;20020;-60
2022/10/01 07:56:44;;;;;;;3.00;2.80;;;31.00;58.90;;;;;;5094452;28;20028;-61
2022/10/01 07:59:10;;;;;;;2.40;2.17;;;32.30;58.00;;;;;;5094127;28;20024;-60
2022/10/01 08:01:36;;;;;;;4.60;2.97;;;33.10;56.70;;;;;;5094315;28;20178;-61
2022/10/01 08:05:16;;;;;;;2.70;2.50;;;34.00;49.80;;;;;;5094237;28;20456;-60
2022/10/01 08:06:50;;;;;;;2.97;2.50;;;34.30;49.90;;;;;;5093817;28;20398;-60
2022/10/01 08:09:15;;;;;;;2.85;2.58;;;34.80;47.30;;;;;;5093851;28;20139;-60
2022/10/01 08:11:41;;;;;;;3.28;2.38;;;35.40;47.00;;;;;;5093959;28;20100;-62
2022/10/01 08:14:07;;;;;;;3.10;2.50;;;36.10;47.00;;;;;;5093800;28;20089;-60
2022/10/01 08:16:33;;;;;;;2.17;1.90;;;35.30;45.90;;;;;;5094042;28;20074;-61
2022/10/01 08:18:59;;;;;;;2.67;2.30;;;35.60;46.20;;;;;;5094127;28;20031;-61
2022/10/01 08:21:27;;;;;;;2.03;1.17;;;36.50;44.10;;;;;;5093745;28;20024;-61
2022/10/01 08:23:53;;;;;;;1.08;0.70;;;36.40;41.30;;;;;;5093672;28;20452;-61
2022/10/01 08:26:18;;;;;;;1.50;0.85;;;34.80;42.00;;;;;;5093662;28;20035;-63
2022/10/01 08:28:44;;;;;;;3.47;1.08;;;32.60;43.70;;;;;;5093605;28;20016;-60
2022/10/01 08:31:10;;;;;;;1.50;0.80;;;30.20;46.00;;;;;;5093695;28;20419;-61
2022/10/01 08:33:37;;;;;;;1.40;0.82;;;29.00;48.30;;;;;;5093560;28;20107;-61
2022/10/01 08:36:06;;;;;;;1.27;0.60;;;28.20;49.40;;;;;;5093579;28;20042;-60
2022/10/01 08:38:33;;;;;;;1.05;0.70;;;27.20;51.30;;;;;;5093661;28;20351;-62
2022/10/01 08:41:16;;;;;;;1.13;0.90;;;26.80;53.10;;;;;;5093792;28;20378;-61
2022/10/01 08:43:42;;;;;;;;;;;26.40;54.20;;;;;;5093126;28;20111;-62
2022/10/01 08:46:17;;;;;;;2.95;0.95;;;26.40;55.50;;;;;;5093581;28;19904;-61
2022/10/01 08:48:57;;;;;;;1.30;0.90;;;26.60;55.50;;;;;;5093638;28;20024;-60
2022/10/01 08:51:48;;;;;;;3.30;1.20;;;26.80;58.30;;;;;;5093687;28;20027;-60
2022/10/01 08:54:40;;;;;;;2.15;1.13;;;26.60;55.30;;;;;;5093106;28;20386;-61
2022/10/01 08:57:13;;;;;;;1.65;0.90;;;26.50;55.50;;;;;;5093311;28;20077;-61
2022/10/01 08:59:46;;;;;;;1.40;0.70;;;26.30;56.40;;;;;;5093335;28;20028;-62
2022/10/01 09:02:24;;;;;;;3.70;1.00;;;26.30;56.90;;;;;;5093303;28;20539;-60
2022/10/01 09:04:54;;;;;;;1.30;0.95;;;26.10;56.70;;;;;;5093557;28;20052;-61
2022/10/01 09:08:09;;;;;;;1.30;0.70;;;26.00;56.20;;;;;;5093069;28;20048;-60
2022/10/01 09:10:53;;;;;;;1.17;0.60;;;26.10;56.60;;;;;;5091821;28;20494;-62
2022/10/01 09:13:22;;;;;;;1.08;0.70;;;26.30;59.80;;;;;;5093126;28;20040;-60
2022/10/01 09:16:14;;;;;;;0.88;0.80;;;26.40;57.40;;;;;;5093196;28;20095;-59
2022/10/01 09:19:04;;;;;;;1.75;0.80;;;26.50;59.40;;;;;;5093446;28;20024;-60
2022/10/01 09:21:42;;;;;;;1.73;1.10;;;26.50;56.80;;;;;;5093084;28;20024;-60
2022/10/01 09:24:20;;;;;;;1.83;1.00;;;26.30;58.40;;;;;;5093375;28;20024;-62
2022/10/01 09:26:47;;;;;;;1.08;0.80;;;26.40;58.80;;;;;;5093314;28;20107;-62
2022/10/01 09:29:20;;;;;;;1.02;0.80;;;26.70;57.60;;;;;;5093263;28;20024;-62
2022/10/01 09:31:49;;;;;;;1.80;0.80;;;27.10;58.40;;;;;;5093281;28;20039;-60
2022/10/01 09:34:25;;;;;;;1.02;0.90;;;27.70;59.00;;;;;;5093354;28;20020;-61
2022/10/01 09:36:51;;;;;;;1.17;0.68;;;28.20;59.40;;;;;;5092829;28;20378;-62
2022/10/01 09:39:30;;;;;;;1.30;1.00;;;28.60;59.00;;;;;;5092890;28;20081;-62
2022/10/01 09:41:56;;;;;;;1.30;0.90;;;28.90;53.80;;;;;;5092953;28;20536;-61
2022/10/01 09:44:27;;;;;;;1.80;1.30;;;29.10;58.30;;;;;;5092956;28;20020;-61
2022/10/01 09:46:54;;;;;;;1.17;0.70;;;29.40;54.30;;;;;;5092918;28;20024;-61
2022/10/01 09:49:32;;;;;;;1.13;0.80;;;29.60;55.10;;;;;;5092969;28;20031;-60
2022/10/01 09:52:05;;;;;;;1.02;0.93;;;30.10;54.10;;;;;;5092578;28;20113;-61
2022/10/01 09:54:38;;;;;;;1.80;0.98;;;30.30;52.80;;;;;;5095044;28;20016;-61
2022/10/01 09:57:08;;;;;;;0.70;0.60;;;30.50;52.10;;;;;;5096436;28;20085;-62
2022/10/01 09:59:46;;;;;;;1.00;0.80;;;30.20;51.50;;;;;;5096606;28;20463;-62
2022/10/01 10:02:20;;;;;;;1.30;0.80;;;30.50;51.40;;;;;;5096488;28;20042;-61
2022/10/01 10:04:46;;;;;;;1.45;0.70;;;30.50;51.90;;;;;;5096319;28;20027;-60
2022/10/01 10:07:17;;;;;;;2.75;1.10;;;31.00;51.60;;;;;;5096336;28;20088;-62
2022/10/01 10:09:44;;;;;;;1.70;1.15;;;30.80;48.70;;;;;;5096069;28;20510;-61
2022/10/01 10:12:25;;;;;;;1.30;0.70;;;30.60;50.30;;;;;;5096187;28;20470;-62
2022/10/01 10:14:54;;;;;;;2.28;0.90;;;31.00;50.60;;;;;;5096195;28;20027;-62
2022/10/01 10:17:20;;;;;;;1.30;0.73;;;31.50;49.80;;;;;;5096462;28;20467;-62
2022/10/01 10:19:51;;;;;;;1.67;0.98;;;31.60;49.80;;;;;;5096249;28;20367;-61
2022/10/01 10:22:25;;;;;;;1.10;1.00;;;31.80;50.90;;;;;;5096090;28;20038;-62
2022/10/01 10:24:53;;;;;;;0.93;0.68;;;32.10;51.30;;;;;;5096148;28;20406;-61
2022/10/01 10:27:27;;;;;;;0.80;0.70;;;32.40;49.50;;;;;;5096129;28;20382;-60
2022/10/01 10:30:14;;;;;;;1.05;0.88;;;32.70;47.60;;;;;;5095799;28;20012;-61
2022/10/01 10:32:42;;;;;;;0.70;0.65;;;32.90;49.10;;;;;;5095827;28;20108;-61
2022/10/01 10:35:12;;;;;;;1.05;0.95;;;33.30;48.80;;;;;;5095522;28;20028;-62
2022/10/01 10:37:45;;;;;;;1.67;1.13;;;33.50;48.10;;;;;;5095763;28;20032;-62
2022/10/01 10:40:20;;;;;;;1.10;0.80;;;33.50;46.60;;;;;;5095599;28;20482;-62
2022/10/01 10:42:49;;;;;;;1.50;1.00;;;32.70;48.20;;;;;;5095714;28;20047;-61
2022/10/01 10:45:19;;;;;;;1.35;0.80;;;32.70;47.40;;;;;;5095656;28;20058;-60
2022/10/01 10:47:51;;;;;;;1.75;0.80;;;32.60;48.90;;;;;;5095535;28;20020;-61
2022/10/01 10:50:56;;;;;;;1.13;1.00;;;32.90;49.30;;;;;;5095344;28;20036;-61
2022/10/01 10:53:25;;;;;;;2.30;1.00;;;33.10;50.50;;;;;;5094492;28;20419;-62
2022/10/01 10:55:59;;;;;;;1.02;0.70;;;32.60;47.50;;;;;;5095707;28;20032;-63
2022/10/01 10:58:28;;;;;;;0.90;0.73;;;32.40;48.20;;;;;;5095645;28;20355;-62
2022/10/01 11:00:58;;;;;;;2.17;0.70;;;32.20;47.50;;;;;;5095581;28;20027;-60
2022/10/01 11:03:27;;;;;;;1.55;0.80;;;32.30;48.70;;;;;;5095048;28;20060;-61
2022/10/01 11:05:59;;;;;;;1.15;0.80;;;32.30;48.20;;;;;;5094142;28;20111;-61
2022/10/01 11:08:27;;;;;;;1.63;0.90;;;32.70;47.60;;;;;;5095034;28;20023;-64
2022/10/01 11:11:16;;;;;;;1.27;0.90;;;33.20;47.00;;;;;;5093560;28;20067;-60
2022/10/01 11:14:08;;;;;;;0.82;0.65;;;33.30;48.10;;;;;;5093548;28;20093;-64
2022/10/01 11:16:48;;;;;;;1.40;0.80;;;33.20;46.00;;;;;;5078267;28;20036;-62
2022/10/01 11:19:32;;;;;;;2.40;1.00;;;32.70;47.70;;;;;;5077209;28;20103;-61
2022/10/01 11:22:22;;;;;;;0.70;0.65;;;32.20;46.70;;;;;;5074694;28;20532;-60
2022/10/01 11:25:07;;;;;;;1.73;0.63;;;31.90;48.60;;;;;;5074771;28;20021;-62
2022/10/01 11:27:39;;;;;;;1.95;0.60;;;31.90;51.10;;;;;;5074751;28;20370;-60
2022/10/01 11:30:14;;;;;;;;;;;31.90;49.60;;;;;;5074789;28;20040;-64
2022/10/01 11:32:44;;;;;;;1.05;0.65;;;31.80;49.40;;;;;;5074236;28;19913;-63
2022/10/01 11:35:22;;;;;;;0.85;0.70;;;31.70;51.20;;;;;;5074194;28;20020;-63
2022/10/01 11:37:50;;;;;;;0.68;0.68;;;31.60;52.00;;;;;;5072729;28;20502;-62
2022/10/01 11:40:27;;;;;;;1.52;0.80;;;31.50;51.90;;;;;;5072215;28;20509;-62
2022/10/01 11:43:01;;;;;;;0.85;0.80;;;31.60;53.50;;;;;;5077351;28;20478;-63
2022/10/01 11:45:34;;;;;;;1.42;1.30;;;31.80;53.80;;;;;;5086796;28;20457;-61
2022/10/01 11:48:09;;;;;;;3.90;1.30;;;32.00;53.20;;;;;;5057548;28;20039;-60
2022/10/01 11:50:39;;;;;;;1.25;0.98;;;32.00;49.40;;;;;;5073028;28;20081;-61
2022/10/01 11:53:17;;;;;;;4.35;1.25;;;32.00;49.10;;;;;;5072607;28;20498;-63
2022/10/01 11:59:15;;;;;;;2.33;0.80;;;32.10;49.20;;;;;;5074039;28;20078;-61
2022/10/01 12:01:51;;;;;;;1.33;0.80;;;32.60;48.50;;;;;;5082895;28;20041;-61
2022/10/01 12:04:31;;;;;;;1.10;0.80;;;32.80;48.60;;;;;;5073645;28;20040;-62
2022/10/01 12:06:57;;;;;;;1.95;0.90;;;32.90;45.30;;;;;;5071739;28;20033;-60
2022/10/01 12:09:30;;;;;;;1.52;0.70;;;32.70;44.60;;;;;;5072071;28;20058;-62
2022/10/01 12:12:16;;;;;;;2.15;0.90;;;32.70;44.80;;;;;;5072704;28;20025;-63
2022/10/01 12:14:44;;;;;;;2.38;0.60;;;32.50;42.80;;;;;;5073188;28;20399;-61
2022/10/01 12:17:31;;;;;;;2.45;0.75;;;32.10;44.30;;;;;;5072702;28;20028;-62
2022/10/01 12:19:58;;;;;;;3.05;0.70;;;31.70;45.80;;;;;;5073513;28;20036;-63
2022/10/01 12:22:36;;;;;;;2.00;0.80;;;31.30;46.40;;;;;;5073343;28;20044;-62
2022/10/01 12:25:02;;;;;;;2.58;0.60;;;31.10;46.70;;;;;;5073714;28;20043;-62
2022/10/01 12:27:49;;;;;;;2.50;0.88;;;31.00;46.70;;;;;;5074586;28;20541;-61
2022/10/01 12:30:15;;;;;;;3.63;1.40;;;30.90;46.50;;;;;;5073140;28;20024;-62
2022/10/01 12:32:56;;;;;;;4.35;2.03;;;29.90;51.00;;;;;;5073342;28;20036;-63
2022/10/01 12:35:41;;;;;;;4.47;2.00;;;29.00;54.80;;;;;;5078852;28;20021;-62
2022/10/01 12:38:12;;;;;;;10.43;2.63;;;28.10;58.20;;;;;;5085829;28;20024;-60
2022/10/01 12:41:02;;;;;;;5.38;2.30;;;27.70;60.10;;;;;;5085116;28;20023;-63
2022/10/01 12:43:50;;;;;;;6.88;2.30;;;27.10;62.40;;;;;;5083588;28;20028;-62
2022/10/01 12:46:31;;;;;;;2.92;2.00;;;26.40;66.90;;;;;;5090411;28;20482;-63
2022/10/01 12:49:21;;;;;;;3.85;1.42;;;26.00;73.40;;;;;;5093931;28;20024;-61
2022/10/01 12:51:52;;;;;;;3.70;1.30;;;25.60;87.10;;;;;;5093309;28;20393;-63
2022/10/01 12:54:40;;;;;;;1.83;1.40;;;25.40;91.00;;;;;;5085511;28;20048;-62
2022/10/01 12:57:33;;;;;;;1.42;1.00;;;24.90;95.70;;;;;;5077634;28;20447;-63
2022/10/01 13:00:15;;;;;;;1.95;1.02;;;24.50;99.90;;;;;;5087039;28;20028;-63
2022/10/01 13:03:26;;;;;;;2.72;1.10;;;24.40;99.90;;;;;;5080311;28;20036;-62
2022/10/01 13:06:13;;;;;;;2.08;1.20;;;24.20;99.90;;;;;;5079160;28;20416;-62
2022/10/01 13:08:44;;;;;;;2.65;1.10;;;24.00;99.90;;;;;;5086539;28;20409;-61
2022/10/01 13:11:45;;;;;;;1.10;0.88;;;23.80;99.90;;;;;;5083920;28;20024;-60
2022/10/01 13:14:16;;;;;;;1.88;0.88;;;23.70;99.90;;;;;;5087502;28;20056;-61